Greenville, Missouri
Current Conditions -  °F | °C
As of 6:53 AM on Thursday 27 Nov 2014 (Local Time) from KPOF Reporting Station
Overcast Overcast  
Wind Chill: 30°   Ceiling: 3100
Heat Index: 36°   Visibility: 10mi
Dew Point: 28°   Wind: 8mph
Humidity: 73%   Direction: 330°NNW
Pressure: 30.41"   Gusts: NA
Location:  37.13°N, 90.45°W
Report Text: KPOF 271253Z AUTO 33007KT 10SM SCT026 OVC031 02/M02 A3041 RMK AO2 SLP304 T00221022
Loading
Personal Weather Stations






























Interactive Weather Map New forecast layout! Learn more

10-Day Weather Forecast

Advertisements
Track Severe Weather on mobile